This is the latest recevied weather packets stored in our database for station/object KO4ZGL-13. If no packets are shown the sender has not sent any weather packets the latest 10 day(s).
| Time | Temp. | Humidity | Pressure | Rain* | Wind** | Luminosity | Snow |
|---|---|---|---|---|---|---|---|
| 1787761266 | 23.89° C | 97% | 1019.9 hPa | 3.05 mm | - | 12 W/m² | - |
| 1787760964 | 24.44° C | 97% | 1019.4 hPa | 13.72 mm | - | 6 W/m² | - |
| 1787760658 | 24.44° C | 96% | 1019.5 hPa | 16.76 mm | - | 6 W/m² | - |
| 1787760357 | 24.44° C | 95% | 1019.2 hPa | 7.87 mm | - | 6 W/m² | - |
| 1787760051 | 25° C | 94% | 1018.4 hPa | 0 mm | - | 17 W/m² | - |
| 1787759744 | 25.56° C | 93% | 1018.1 hPa | 0 mm | - | 26 W/m² | - |
| 1787759440 | 26.11° C | 92% | 1018.4 hPa | 0 mm | - | 26 W/m² | - |
| 1787759134 | 26.67° C | 92% | 1018.5 hPa | 0 mm | - | 40 W/m² | - |
| 1787758833 | 27.22° C | 91% | 1018.3 hPa | 0 mm | - | 52 W/m² | - |
| 1787758530 | 28.33° C | 89% | 1018.4 hPa | 0 mm | - | 34 W/m² | - |
| 1787758229 | 30° C | 88% | 1018.4 hPa | 0 mm | - | 143 W/m² | - |
| 1787757924 | 29.44° C | 87% | 1018.4 hPa | 0 mm | - | 485 W/m² | - |
| 1787757621 | 29.44° C | 87% | 1018.1 hPa | 0 mm | - | 216 W/m² | - |
| 1787757319 | 28.89° C | 87% | 1018.2 hPa | 0 mm | - | 167 W/m² | - |
| 1787757019 | 29.44° C | 86% | 1018.1 hPa | 0 mm | - | 101 W/m² | - |
| 1787756713 | 30.56° C | 83% | 1018 hPa | 0 mm | - | 81 W/m² | - |
| 1787756409 | 30.56° C | 82% | 1018 hPa | 0 mm | - | 684 W/m² | - |
| 1787756103 | 30° C | 84% | 1018 hPa | 0 mm | - | 248 W/m² | - |
| 1787755797 | 30° C | 83% | 1018.2 hPa | 0 mm | - | 236 W/m² | - |
| 1787755497 | 30° C | 85% | 1017.9 hPa | 0 mm | - | 696 W/m² | - |
| 1787755191 | 30° C | 84% | 1017.9 hPa | 0 mm | - | 243 W/m² | - |
| 1787754890 | 30° C | 85% | 1017.9 hPa | 0 mm | - | 675 W/m² | - |
| 1787754584 | 30° C | 86% | 1017.7 hPa | 0 mm | - | 646 W/m² | - |
| 1787754283 | 29.44° C | 87% | 1018.2 hPa | 0 mm | - | 607 W/m² | - |
| 1787753978 | 28.89° C | 87% | 1018.4 hPa | 0 mm | - | 504 W/m² | - |
* Rain latest hour (hover to see other rain measurements)
** Current wind speed in m/s (hover to see current wind gust speed)